sensor_id;sensor_type;location;lat;lon;timestamp;pressure;altitude;pressure_sealevel;temperature;humidity
56632;BME280;42503;39.928;-75.152;2023-03-16T00:08:01;101479.31;;;19.92;31.28
56632;BME280;42503;39.928;-75.152;2023-03-16T00:18:03;101507.56;;;20.11;31.46
56632;BME280;42503;39.928;-75.152;2023-03-16T00:28:04;101532.88;;;20.14;31.01
56632;BME280;42503;39.928;-75.152;2023-03-16T00:38:06;101548.44;;;20.15;31.32
56632;BME280;42503;39.928;-75.152;2023-03-16T00:48:07;101569.72;;;20.26;31.12
56632;BME280;42503;39.928;-75.152;2023-03-16T00:58:08;101578.84;;;20.22;31.00
56632;BME280;42503;39.928;-75.152;2023-03-16T01:08:12;101610.94;;;20.35;31.22
56632;BME280;42503;39.928;-75.152;2023-03-16T01:18:14;101606.50;;;20.39;31.30
56632;BME280;42503;39.928;-75.152;2023-03-16T01:28:15;101612.06;;;20.39;31.08
56632;BME280;42503;39.928;-75.152;2023-03-16T01:38:22;101626.91;;;20.44;31.38
56632;BME280;42503;39.928;-75.152;2023-03-16T01:48:25;101633.28;;;20.45;31.31
56632;BME280;42503;39.928;-75.152;2023-03-16T01:58:29;101641.88;;;20.43;31.08
56632;BME280;42503;39.928;-75.152;2023-03-16T02:08:32;101622.56;;;20.31;30.72
56632;BME280;42503;39.928;-75.152;2023-03-16T02:18:36;101646.59;;;20.43;31.08
56632;BME280;42503;39.928;-75.152;2023-03-16T02:39:05;101667.63;;;20.34;30.82
56632;BME280;42503;39.928;-75.152;2023-03-16T02:59:12;101680.22;;;20.19;30.87
56632;BME280;42503;39.928;-75.152;2023-03-16T03:09:14;101676.94;;;20.22;30.83
56632;BME280;42503;39.928;-75.152;2023-03-16T03:19:16;101627.13;;;19.94;31.08
56632;BME280;42503;39.928;-75.152;2023-03-16T03:29:18;101702.28;;;20.26;31.04
56632;BME280;42503;39.928;-75.152;2023-03-16T03:39:19;101702.53;;;20.24;30.65
56632;BME280;42503;39.928;-75.152;2023-03-16T03:49:20;101710.34;;;20.27;30.65
56632;BME280;42503;39.928;-75.152;2023-03-16T03:59:22;101717.00;;;20.26;30.68
56632;BME280;42503;39.928;-75.152;2023-03-16T04:09:23;101718.63;;;20.22;30.69
56632;BME280;42503;39.928;-75.152;2023-03-16T04:19:25;101735.31;;;20.22;31.29
56632;BME280;42503;39.928;-75.152;2023-03-16T04:29:26;101702.53;;;20.02;31.27
56632;BME280;42503;39.928;-75.152;2023-03-16T04:39:28;101735.81;;;20.19;31.30
56632;BME280;42503;39.928;-75.152;2023-03-16T04:49:31;101727.75;;;20.01;31.50
56632;BME280;42503;39.928;-75.152;2023-03-16T04:59:33;101755.25;;;20.19;30.92
56632;BME280;42503;39.928;-75.152;2023-03-16T05:09:35;101682.44;;;19.78;31.11
56632;BME280;42503;39.928;-75.152;2023-03-16T05:19:45;101761.41;;;20.21;30.85
56632;BME280;42503;39.928;-75.152;2023-03-16T05:29:49;101768.03;;;20.20;30.96
56632;BME280;42503;39.928;-75.152;2023-03-16T05:39:50;101774.13;;;20.17;30.82
56632;BME280;42503;39.928;-75.152;2023-03-16T05:49:52;101771.34;;;20.17;30.86
56632;BME280;42503;39.928;-75.152;2023-03-16T05:59:53;101767.41;;;20.13;30.76
56632;BME280;42503;39.928;-75.152;2023-03-16T06:09:55;101752.69;;;20.13;30.48
56632;BME280;42503;39.928;-75.152;2023-03-16T06:19:56;101758.22;;;20.13;30.63
56632;BME280;42503;39.928;-75.152;2023-03-16T06:29:57;101748.47;;;20.10;30.73
56632;BME280;42503;39.928;-75.152;2023-03-16T06:39:59;101761.50;;;20.10;30.41
56632;BME280;42503;39.928;-75.152;2023-03-16T06:50:00;101662.53;;;19.48;30.40
56632;BME280;42503;39.928;-75.152;2023-03-16T07:00:05;101784.50;;;20.05;30.58
56632;BME280;42503;39.928;-75.152;2023-03-16T07:10:16;101775.59;;;20.03;30.44
56632;BME280;42503;39.928;-75.152;2023-03-16T07:20:18;101765.19;;;19.93;30.33
56632;BME280;42503;39.928;-75.152;2023-03-16T07:30:19;101772.75;;;19.98;29.62
56632;BME280;42503;39.928;-75.152;2023-03-16T07:40:21;101784.84;;;19.92;29.67
56632;BME280;42503;39.928;-75.152;2023-03-16T07:50:23;101752.34;;;19.92;29.53
56632;BME280;42503;39.928;-75.152;2023-03-16T08:00:24;101755.31;;;20.02;29.24
56632;BME280;42503;39.928;-75.152;2023-03-16T08:10:26;101769.84;;;20.10;29.52
56632;BME280;42503;39.928;-75.152;2023-03-16T08:20:28;101760.75;;;20.14;29.58
56632;BME280;42503;39.928;-75.152;2023-03-16T08:30:30;101748.53;;;20.15;29.13
56632;BME280;42503;39.928;-75.152;2023-03-16T08:40:31;101761.91;;;20.18;29.48
56632;BME280;42503;39.928;-75.152;2023-03-16T08:50:43;101745.09;;;20.08;29.64
56632;BME280;42503;39.928;-75.152;2023-03-16T09:00:45;101780.94;;;20.26;28.88
56632;BME280;42503;39.928;-75.152;2023-03-16T09:10:46;101788.69;;;20.24;28.67
56632;BME280;42503;39.928;-75.152;2023-03-16T09:20:48;101789.97;;;20.17;28.82
56632;BME280;42503;39.928;-75.152;2023-03-16T09:30:49;101799.50;;;20.04;29.06
56632;BME280;42503;39.928;-75.152;2023-03-16T09:41:01;101840.75;;;20.12;29.00
56632;BME280;42503;39.928;-75.152;2023-03-16T09:51:05;101843.47;;;20.07;29.09
56632;BME280;42503;39.928;-75.152;2023-03-16T10:01:33;101854.22;;;20.03;29.16
56632;BME280;42503;39.928;-75.152;2023-03-16T10:11:43;101863.41;;;20.04;29.06
56632;BME280;42503;39.928;-75.152;2023-03-16T10:21:48;101836.38;;;19.83;29.02
56632;BME280;42503;39.928;-75.152;2023-03-16T10:31:50;101833.50;;;19.77;28.72
56632;BME280;42503;39.928;-75.152;2023-03-16T10:41:56;101849.84;;;19.91;28.85
56632;BME280;42503;39.928;-75.152;2023-03-16T10:51:58;101878.31;;;19.98;28.90
56632;BME280;42503;39.928;-75.152;2023-03-16T11:02:06;101889.44;;;19.98;29.12
56632;BME280;42503;39.928;-75.152;2023-03-16T11:12:25;101906.09;;;19.98;29.16
56632;BME280;42503;39.928;-75.152;2023-03-16T11:22:27;101895.88;;;19.87;29.22
56632;BME280;42503;39.928;-75.152;2023-03-16T11:32:36;101909.94;;;19.97;28.93
56632;BME280;42503;39.928;-75.152;2023-03-16T11:42:48;101908.25;;;19.96;29.28
56632;BME280;42503;39.928;-75.152;2023-03-16T11:53:17;101904.91;;;19.94;29.22
56632;BME280;42503;39.928;-75.152;2023-03-16T12:23:56;101918.63;;;20.00;29.25
56632;BME280;42503;39.928;-75.152;2023-03-16T12:34:18;101907.84;;;19.87;31.58
56632;BME280;42503;39.928;-75.152;2023-03-16T12:55:23;101881.81;;;19.76;31.64
56632;BME280;42503;39.928;-75.152;2023-03-16T13:05:08;101933.53;;;20.11;31.51
56632;BME280;42503;39.928;-75.152;2023-03-16T13:35:32;101896.00;;;20.25;30.99
56632;BME280;42503;39.928;-75.152;2023-03-16T13:45:36;101895.47;;;20.28;30.98
56632;BME280;42503;39.928;-75.152;2023-03-16T13:55:39;101884.34;;;20.28;30.77
56632;BME280;42503;39.928;-75.152;2023-03-16T14:05:41;101865.16;;;20.27;30.35
56632;BME280;42503;39.928;-75.152;2023-03-16T14:15:44;101879.97;;;20.33;29.71
56632;BME280;42503;39.928;-75.152;2023-03-16T14:25:47;101876.84;;;20.29;29.65
56632;BME280;42503;39.928;-75.152;2023-03-16T14:35:57;101891.59;;;20.29;29.59
56632;BME280;42503;39.928;-75.152;2023-03-16T14:45:59;101897.81;;;20.37;29.18
56632;BME280;42503;39.928;-75.152;2023-03-16T14:56:10;101889.41;;;20.31;29.39
56632;BME280;42503;39.928;-75.152;2023-03-16T15:06:13;101897.25;;;20.35;29.04
56632;BME280;42503;39.928;-75.152;2023-03-16T15:16:21;101898.31;;;20.34;29.54
56632;BME280;42503;39.928;-75.152;2023-03-16T15:26:24;101879.47;;;20.36;29.70
56632;BME280;42503;39.928;-75.152;2023-03-16T15:36:27;101874.75;;;20.36;29.71
56632;BME280;42503;39.928;-75.152;2023-03-16T15:46:28;101870.88;;;20.37;30.27
56632;BME280;42503;39.928;-75.152;2023-03-16T15:56:35;101813.47;;;20.09;30.75
56632;BME280;42503;39.928;-75.152;2023-03-16T16:06:41;101848.81;;;20.47;31.10
56632;BME280;42503;39.928;-75.152;2023-03-16T16:16:44;101814.44;;;20.53;31.27
56632;BME280;42503;39.928;-75.152;2023-03-16T16:26:47;101792.81;;;20.61;31.54
56632;BME280;42503;39.928;-75.152;2023-03-16T16:36:53;101769.22;;;20.63;31.08
56632;BME280;42503;39.928;-75.152;2023-03-16T16:46:55;101760.09;;;20.68;31.15
56632;BME280;42503;39.928;-75.152;2023-03-16T16:56:58;101740.97;;;20.71;31.13
56632;BME280;42503;39.928;-75.152;2023-03-16T17:07:01;101731.47;;;20.67;31.03
56632;BME280;42503;39.928;-75.152;2023-03-16T17:17:08;101706.25;;;20.79;31.96
56632;BME280;42503;39.928;-75.152;2023-03-16T17:27:12;101686.31;;;20.87;32.08
56632;BME280;42503;39.928;-75.152;2023-03-16T17:37:16;101669.44;;;20.94;32.21
56632;BME280;42503;39.928;-75.152;2023-03-16T17:47:26;101653.59;;;20.94;33.09
56632;BME280;42503;39.928;-75.152;2023-03-16T17:57:30;101628.31;;;21.01;34.62
56632;BME280;42503;39.928;-75.152;2023-03-16T18:07:32;101600.53;;;21.06;34.06
56632;BME280;42503;39.928;-75.152;2023-03-16T18:17:33;101591.97;;;21.13;33.60
56632;BME280;42503;39.928;-75.152;2023-03-16T18:27:36;101561.63;;;21.16;33.64
56632;BME280;42503;39.928;-75.152;2023-03-16T18:37:43;101547.19;;;21.19;33.83
56632;BME280;42503;39.928;-75.152;2023-03-16T18:47:52;101520.50;;;21.23;33.76
56632;BME280;42503;39.928;-75.152;2023-03-16T18:57:55;101500.75;;;21.30;33.89
56632;BME280;42503;39.928;-75.152;2023-03-16T19:07:57;101475.13;;;21.23;34.00
56632;BME280;42503;39.928;-75.152;2023-03-16T19:18:01;101456.03;;;21.42;34.40
56632;BME280;42503;39.928;-75.152;2023-03-16T19:28:04;101431.44;;;21.28;34.48
56632;BME280;42503;39.928;-75.152;2023-03-16T19:38:06;101442.94;;;21.42;36.74
56632;BME280;42503;39.928;-75.152;2023-03-16T19:48:31;101423.75;;;21.41;34.74
56632;BME280;42503;39.928;-75.152;2023-03-16T19:58:39;101396.44;;;21.38;35.48
56632;BME280;42503;39.928;-75.152;2023-03-16T20:08:43;101392.53;;;21.39;35.93
56632;BME280;42503;39.928;-75.152;2023-03-16T20:18:47;101384.78;;;21.46;37.86
56632;BME280;42503;39.928;-75.152;2023-03-16T20:28:50;101372.53;;;21.57;38.32
56632;BME280;42503;39.928;-75.152;2023-03-16T20:38:52;101361.44;;;21.67;37.74
56632;BME280;42503;39.928;-75.152;2023-03-16T20:48:54;101344.16;;;21.75;37.93
56632;BME280;42503;39.928;-75.152;2023-03-16T20:58:55;101299.06;;;21.58;39.53
56632;BME280;42503;39.928;-75.152;2023-03-16T21:08:59;101344.16;;;21.80;38.32
56632;BME280;42503;39.928;-75.152;2023-03-16T21:19:02;101315.75;;;21.78;38.40
56632;BME280;42503;39.928;-75.152;2023-03-16T21:29:15;101312.44;;;21.87;40.47
56632;BME280;42503;39.928;-75.152;2023-03-16T21:39:19;101315.22;;;21.87;41.11
56632;BME280;42503;39.928;-75.152;2023-03-16T21:49:22;101305.72;;;21.98;44.44
56632;BME280;42503;39.928;-75.152;2023-03-16T21:59:23;101247.50;;;21.76;45.29
56632;BME280;42503;39.928;-75.152;2023-03-16T22:09:25;101292.09;;;22.17;47.82
56632;BME280;42503;39.928;-75.152;2023-03-16T22:19:33;101292.38;;;22.15;46.66
56632;BME280;42503;39.928;-75.152;2023-03-16T22:29:34;101315.22;;;22.17;45.20
56632;BME280;42503;39.928;-75.152;2023-03-16T22:39:38;101321.59;;;22.07;44.28
56632;BME280;42503;39.928;-75.152;2023-03-16T22:49:44;101341.94;;;22.03;42.85
56632;BME280;42503;39.928;-75.152;2023-03-16T22:59:49;101333.06;;;21.91;42.15
56632;BME280;42503;39.928;-75.152;2023-03-16T23:09:51;101346.41;;;21.89;41.10
56632;BME280;42503;39.928;-75.152;2023-03-16T23:19:58;101334.13;;;21.69;39.77
56632;BME280;42503;39.928;-75.152;2023-03-16T23:29:59;101353.09;;;21.72;39.07
56632;BME280;42503;39.928;-75.152;2023-03-16T23:40:01;101339.41;;;21.66;38.42
56632;BME280;42503;39.928;-75.152;2023-03-16T23:50:04;101335.25;;;21.63;37.81
